Latest Weather Observations for Naracoorte

IDS60801

Issued at 7:51 pm CDT Sunday 24 January 2021 (issued every 10 minutes, with the page automatically refreshed every 10 minutes)

About weather observations | Map of weather stations | Latest weather observations for SA | Other Formats
Station Details ID: 026099 Name: NARACOORTE AERODROME Lat: -36.98 Lon: 140.73 Height: 49.72 m
Data from the previous 72 hours. | See also: Recent months at Naracoorte
Date/Time
CDT
Temp
°C
App
Temp
°C
Dew
Point
°C
Rel
Hum
%
Delta-T
°C
Wind Press
QNH
hPa
Press
MSL
hPa
Rain since
9am
mm
Dir  Spd
km/h
Gust
km/h
Spd
kts
Gust
kts
24/07:30pm 37.8 31.0 -2.1 8 19.5 W 24 35 13 19 1000.8 1000.6 0.0
24/07:00pm 39.6 32.9 -0.8 8 20.3 W 24 33 13 18 1000.6 1000.4 0.0
24/06:30pm 40.2 32.2 -2.1 7 21.0 W 30 37 16 20 1000.3 1000.1 0.0
24/06:00pm 42.7 36.5 -0.4 7 22.3 NW 22 37 12 20 1000.3 1000.1 0.0
24/05:30pm 41.2 34.1 -1.4 7 21.5 NW 26 37 14 20 1000.6 1000.4 0.0
24/05:00pm 43.1 36.9 -0.1 7 22.4 WNW 22 30 12 16 1001.0 1000.8 0.0
24/04:30pm 41.5 35.5 -1.2 7 21.7 NW 20 30 11 16 1001.4 1001.2 0.0
24/04:00pm 42.1 36.4 -0.8 7 21.9 NNW 19 30 10 16 1001.8 1001.6 0.0
24/03:30pm 42.4 37.1 -0.6 7 22.1 NNW 17 30 9 16 1002.4 1002.2 0.0
24/03:00pm 40.3 35.0 -0.3 8 20.7 N 17 26 9 14 1003.1 1002.9 0.0
24/02:30pm 41.2 35.1 0.4 8 21.2 NW 22 37 12 20 1003.8 1003.6 0.0
24/02:00pm 39.8 34.6 2.5 10 19.7 N 19 32 10 17 1004.4 1004.2 0.0
24/01:30pm 39.2 33.0 2.0 10 19.5 N 24 39 13 21 1005.1 1004.9 0.0
24/01:00pm 38.9 33.2 3.1 11 19.0 N 22 33 12 18 1005.5 1005.3 0.0
24/12:30pm 38.2 32.5 2.6 11 18.8 N 22 33 12 18 1006.0 1005.8 0.0
24/12:00pm 36.4 31.4 4.6 14 17.1 NNE 20 32 11 17 1006.5 1006.3 0.0
24/11:30am 36.1 31.5 6.3 16 16.4 NNE 20 32 11 17 1006.9 1006.7 0.0
24/11:00am 35.7 29.3 6.9 17 16.0 NNE 30 41 16 22 1007.1 1006.9 0.0
24/10:30am 34.1 28.7 8.0 20 14.6 NE 26 32 14 17 1007.4 1007.2 0.0
24/10:00am 32.4 26.2 8.0 22 13.5 NE 30 39 16 21 1007.6 1007.4 0.0
24/09:30am 31.2 26.2 9.4 26 12.3 NE 26 37 14 20 1007.7 1007.5 0.0
24/09:00am 28.7 24.2 9.9 31 10.6 NE 24 28 13 15 1007.8 1007.6 0.0
24/08:30am 26.6 21.7 9.9 35 9.3 NE 26 30 14 16 1007.9 1007.7 0.0
24/08:00am 25.6 21.5 10.2 38 8.6 NE 22 28 12 15 1007.8 1007.6 0.0
24/07:30am 24.6 20.2 10.5 41 7.9 NE 24 32 13 17 1007.7 1007.5 0.0
24/07:00am 23.7 19.4 10.7 44 7.2 NE 24 30 13 16 1007.6 1007.4 0.0
24/06:30am 23.0 18.8 11.1 47 6.6 NE 24 28 13 15 1007.3 1007.1 0.0
24/06:00am 22.5 18.4 11.6 50 6.1 NE 24 28 13 15 1007.1 1006.9 0.0
24/05:30am 22.1 19.0 12.1 53 5.7 NE 20 28 11 15 1006.9 1006.7 0.0
24/05:00am 22.2 18.8 12.5 54 5.5 NE 22 28 12 15 1006.8 1006.6 0.0
24/04:30am 22.4 19.6 12.6 54 5.6 NE 19 24 10 13 1006.8 1006.6 0.0
24/04:00am 22.3 19.9 12.8 55 5.4 NE 17 20 9 11 1006.9 1006.7 0.0
24/03:30am 22.4 20.1 12.9 55 5.5 NE 17 20 9 11 1007.0 1006.8 0.0
24/03:00am 22.9 20.2 12.8 53 5.8 NE 19 24 10 13 1007.2 1007.0 0.0
24/02:30am 23.6 20.9 12.9 51 6.2 NE 19 24 10 13 1007.4 1007.2 0.0
24/02:00am 24.1 21.2 12.4 48 6.7 ENE 19 22 10 12 1007.6 1007.4 0.0
24/01:30am 24.5 21.7 12.5 47 6.9 ENE 19 28 10 15 1008.0 1007.8 0.0
24/01:00am 24.4 21.5 12.4 47 6.9 ENE 19 22 10 12 1008.2 1008.0 0.0
24/12:30am 24.1 21.4 11.8 46 7.0 E 17 20 9 11 1008.6 1008.4 0.0
24/12:00am 24.0 21.6 11.3 45 7.2 ENE 15 20 8 11 1008.9 1008.7 0.0
 
Date/Time
CDT
Temp
°C
App
Temp
°C
Dew
Point
°C
Rel
Hum
%
Delta-T
°C
Wind Press
QNH
hPa
Press
MSL
hPa
Rain since
9am
mm
Dir  Spd
km/h
Gust
km/h
Spd
kts
Gust
kts
23/11:30pm 24.1 21.7 11.4 45 7.2 E 15 17 8 9 1009.3 1009.1 0.0
23/11:00pm 20.9 19.7 11.5 55 5.2 ESE 9 11 5 6 1009.5 1009.4 0.0
23/10:30pm 22.3 20.7 11.7 51 6.0 SSE 11 13 6 7 1009.8 1009.7 0.0
23/10:00pm 23.3 21.5 10.7 45 7.0 SE 11 15 6 8 1010.0 1009.9 0.0
23/09:30pm 24.3 21.4 9.5 39 8.1 SSE 15 19 8 10 1010.0 1009.9 0.0
23/09:00pm 25.1 22.3 8.6 35 8.9 SSE 13 15 7 8 1009.6 1009.5 0.0
23/08:30pm 27.5 24.2 7.9 29 10.6 S 15 19 8 10 1009.6 1009.5 0.0
23/08:00pm 29.7 25.3 7.6 25 12.0 S 20 24 11 13 1009.5 1009.4 0.0
23/07:30pm 31.8 27.4 7.5 22 13.4 S 20 26 11 14 1009.1 1008.9 0.0
23/07:00pm 33.2 29.5 6.5 19 14.5 SSW 15 20 8 11 1008.8 1008.6 0.0
23/06:30pm 32.8 27.9 6.9 20 14.2 S 22 30 12 16 1008.7 1008.5 0.0
23/06:00pm 34.4 30.0 7.5 19 15.0 SW 20 30 11 16 1008.5 1008.3 0.0
23/05:30pm 34.6 30.1 6.8 18 15.3 SSW 20 33 11 18 1008.5 1008.3 0.0
23/05:00pm 35.1 30.3 5.5 16 16.0 SW 20 30 11 16 1008.5 1008.3 0.0
23/04:30pm 35.1 30.9 5.5 16 16.0 WSW 17 28 9 15 1008.6 1008.4 0.0
23/04:00pm 35.2 30.0 5.6 16 16.0 SW 22 32 12 17 1008.8 1008.6 0.0
23/03:30pm 35.4 31.2 5.8 16 16.1 WSW 17 32 9 17 1008.9 1008.7 0.0
23/03:00pm 34.9 31.2 6.2 17 15.7 W 15 24 8 13 1009.4 1009.2 0.0
23/02:30pm 34.0 29.4 5.5 17 15.3 SW 19 26 10 14 1009.7 1009.6 0.0
23/02:00pm 33.2 28.4 4.9 17 15.0 SW 19 32 10 17 1010.1 1010.0 0.0
23/01:30pm 31.6 26.9 5.2 19 13.9 WNW 19 32 10 17 1010.4 1010.3 0.0
23/01:00pm 31.3 28.1 4.9 19 13.8 NW 11 26 6 14 1010.7 1010.6 0.0
23/12:30pm 30.4 28.2 6.3 22 12.9 WNW 7 17 4 9 1010.7 1010.6 0.0
23/12:00pm 28.9 26.2 5.7 23 12.2 NNW 9 13 5 7 1011.1 1011.0 0.0
23/11:30am 28.6 26.5 6.7 25 11.7 W 7 15 4 8 1011.4 1011.3 0.0
23/11:00am 26.6 24.8 7.1 29 10.3 NNW 6 11 3 6 1011.6 1011.5 0.0
23/10:30am 25.2 24.0 8.2 34 9.1 WNW 4 7 2 4 1011.9 1011.8 0.0
23/10:00am 23.8 21.3 4.7 29 9.5 NNE 7 13 4 7 1011.9 1011.8 0.0
23/09:30am 21.7 21.7 12.3 55 5.3 N 4 7 2 4 1012.3 1012.2 0.0
23/09:00am 20.0 20.5 12.7 63 4.1 N 2 9 1 5 1012.4 1012.3 0.0
23/08:30am 18.1 18.6 12.8 71 3.0 ESE 2 7 1 4 1012.1 1012.0 0.0
23/08:00am 16.7 16.0 13.2 80 2.0 ESE 9 11 5 6 1011.7 1011.6 0.0
23/07:30am 13.6 13.4 11.8 89 1.0 SE 4 7 2 4 1011.4 1011.3 0.0
23/07:00am 10.8 10.7 9.6 92 0.6 CALM 0 0 0 0 1011.5 1011.4 0.0
23/06:30am 9.2 8.7 8.0 92 0.6 CALM 0 0 0 0 1011.4 1011.3 0.0
23/06:00am 9.0 7.4 7.8 92 0.6 SE 6 7 3 4 1011.1 1011.0 0.0
23/05:30am 9.6 7.5 8.4 92 0.6 SSE 9 11 5 6 1010.9 1010.8 0.0
23/05:00am 10.0 7.6 8.6 91 0.7 S 11 15 6 8 1010.6 1010.5 0.0
23/04:30am 10.0 8.0 8.6 91 0.7 SSE 9 13 5 7 1010.4 1010.3 0.0
23/04:00am 10.7 8.8 9.1 90 0.8 S 9 11 5 6 1010.7 1010.6 0.0
23/03:30am 11.1 9.3 9.5 90 0.8 SSE 9 13 5 7 1010.6 1010.5 0.0
23/03:00am 11.0 8.4 9.3 89 0.9 SSE 13 15 7 8 1011.0 1010.9 0.0
23/02:30am 11.4 8.8 9.3 87 1.1 SSE 13 13 7 7 1011.1 1011.0 0.0
23/02:00am 12.1 10.0 9.8 86 1.2 S 11 13 6 7 1011.3 1011.2 0.0
23/01:30am 11.8 9.9 9.2 84 1.3 SSE 9 11 5 6 1011.3 1011.2 0.0
23/01:00am 12.5 10.0 9.7 83 1.4 SSE 13 15 7 8 1011.7 1011.6 0.0
23/12:30am 13.3 10.9 10.1 81 1.7 SSE 13 13 7 7 1011.8 1011.7 0.0
23/12:00am 13.9 11.6 10.3 79 1.9 SSE 13 15 7 8 1011.8 1011.7 0.0
 
Date/Time
CDT
Temp
°C
App
Temp
°C
Dew
Point
°C
Rel
Hum
%
Delta-T
°C
Wind Press
QNH
hPa
Press
MSL
hPa
Rain since
9am
mm
Dir  Spd
km/h
Gust
km/h
Spd
kts
Gust
kts
22/11:30pm 14.1 12.0 9.9 76 2.2 S 11 13 6 7 1012.0 1011.9 0.0
22/11:00pm 14.2 11.8 8.8 70 2.7 SSE 11 13 6 7 1012.0 1011.9 0.0
22/10:30pm 16.2 13.9 10.5 69 3.0 S 13 17 7 9 1012.1 1012.0 0.0
22/10:00pm 15.9 13.9 8.6 62 3.7 S 9 11 5 6 1012.0 1011.9 0.0
22/09:30pm 18.4 16.0 10.0 58 4.5 SSW 13 17 7 9 1011.9 1011.8 0.0
22/09:00pm 19.4 16.8 9.3 52 5.3 SW 13 17 7 9 1011.5 1011.4 0.0
22/08:30pm 21.2 17.9 9.4 47 6.3 SW 17 22 9 12 1011.2 1011.1 0.0
22/08:00pm 23.2 19.1 8.5 39 7.8 SSW 20 24 11 13 1010.9 1010.8 0.0
22/07:30pm 25.0 20.4 6.7 31 9.5 SSW 20 26 11 14 1010.5 1010.4 0.0
22/07:00pm 26.3 21.3 6.4 28 10.4 SW 22 28 12 15 1010.3 1010.2 0.0
22/06:30pm 27.7 22.3 6.5 26 11.2 SSW 24 30 13 16 1010.0 1009.9 0.0
22/06:00pm 28.9 23.2 3.0 19 13.0 SW 22 32 12 17 1009.7 1009.6 0.0
22/05:30pm 29.2 23.6 3.2 19 13.1 SW 22 32 12 17 1009.8 1009.7 0.0
22/05:00pm 29.2 24.3 4.0 20 12.8 SW 19 28 10 15 1009.8 1009.7 0.0
22/04:30pm 29.3 23.2 2.5 18 13.3 SSW 24 32 13 17 1009.9 1009.8 0.0
22/04:00pm 30.1 25.1 4.7 20 13.2 SW 20 32 11 17 1010.1 1010.0 0.0
22/03:30pm 29.5 24.1 2.7 18 13.4 WSW 20 32 11 17 1010.2 1010.1 0.0
22/03:00pm 28.7 23.0 4.9 22 12.3 SW 24 37 13 20 1010.6 1010.5 0.0
22/02:30pm 30.0 24.2 4.6 20 13.2 SW 24 35 13 19 1010.6 1010.5 0.0
22/02:00pm 28.0 23.2 5.6 24 11.7 SSW 20 30 11 16 1010.7 1010.6 0.0
22/01:30pm 28.4 24.2 5.9 24 11.8 SW 17 32 9 17 1011.0 1010.9 0.0
22/01:00pm 27.1 22.5 6.5 27 10.8 SW 20 33 11 18 1011.3 1011.2 0.0
22/12:30pm 26.2 22.8 7.7 31 9.9 SW 15 28 8 15 1011.4 1011.3 0.0
22/12:00pm 25.8 21.9 6.9 30 9.9 SW 17 30 9 16 1011.7 1011.6 0.0
22/11:30am 24.7 20.1 6.4 31 9.5 SSW 20 28 11 15 1012.1 1012.0 0.0
22/11:00am 23.7 20.5 8.6 38 8.1 SW 15 24 8 13 1012.3 1012.2 0.0
22/10:30am 20.5 18.6 10.6 53 5.4 SW 11 17 6 9 1012.2 1012.1 0.0
22/10:00am 17.9 17.5 13.0 73 2.8 NW 7 13 4 7 1012.0 1011.9 0.0
22/09:30am 15.6 15.5 14.0 90 0.9 SSW 7 15 4 8 1012.4 1012.3 0.0
22/09:00am 12.6 11.1 11.8 95 0.4 SSW 11 17 6 9 1012.1 1012.0 0.0
22/08:30am 12.4 10.8 11.6 95 0.4 SW 11 19 6 10 1012.0 1011.9 0.0
22/08:00am 12.5 11.3 11.7 95 0.4 SW 9 15 5 8 1011.6 1011.5 0.0
22/07:30am 12.1 10.8 11.3 95 0.4 SW 9 15 5 8 1011.2 1011.1 0.0
22/07:00am 11.7 10.9 10.9 95 0.4 SSE 6 9 3 5 1010.7 1010.6 0.0
22/06:30am 11.2 10.0 10.4 95 0.4 SSE 7 11 4 6 1010.7 1010.6 0.0
22/06:00am 11.0 9.7 10.1 94 0.5 SSW 7 9 4 5 1010.4 1010.3 0.0
22/05:30am 10.7 10.7 9.8 94 0.5 CALM 0 0 0 0 1010.2 1010.1 0.0
22/05:00am 10.4 8.9 9.3 93 0.5 S 7 9 4 5 1010.2 1010.1 0.0
22/04:30am 10.1 8.5 8.9 92 0.6 SSW 7 9 4 5 1009.8 1009.7 0.0
22/04:00am 10.3 8.9 8.7 90 0.8 S 6 7 3 4 1009.6 1009.5 0.0
22/03:30am 10.3 10.0 8.6 89 0.8 CALM 0 0 0 0 1009.6 1009.5 0.0
22/03:00am 9.9 9.4 7.8 87 1.0 CALM 0 0 0 0 1009.6 1009.5 0.0
22/02:30am 9.0 6.8 6.4 84 1.2 S 7 9 4 5 1009.6 1009.5 0.0
22/02:00am 9.4 7.4 6.1 80 1.5 S 6 7 3 4 1009.6 1009.5 0.0
22/01:30am 9.9 7.2 5.7 75 1.9 S 9 11 5 6 1010.0 1009.9 0.0
22/01:00am 11.0 8.8 6.0 71 2.3 SE 7 9 4 5 1010.1 1010.0 0.0
22/12:30am 10.8 7.9 4.9 67 2.7 SSE 9 11 5 6 1010.2 1010.1 0.0
22/12:00am 12.0 10.3 4.2 59 3.5 S 2 7 1 4 1010.7 1010.6 0.0
 
Date/Time
CDT
Temp
°C
App
Temp
°C
Dew
Point
°C
Rel
Hum
%
Delta-T
°C
Wind Press
QNH
hPa
Press
MSL
hPa
Rain since
9am
mm
Dir  Spd
km/h
Gust
km/h
Spd
kts
Gust
kts
21/11:30pm 13.9 12.1 5.3 56 4.0 SSW 4 9 2 5 1011.0 1010.9 0.0
21/11:00pm 13.4 11.5 4.8 56 4.0 SSW 4 9 2 5 1010.9 1010.8 0.0
21/10:30pm 14.2 10.8 3.9 50 4.7 SW 11 13 6 7 1011.1 1011.0 0.0
21/10:00pm 15.3 13.0 4.7 49 5.0 SSE 6 11 3 6 1010.9 1010.8 0.0
21/09:30pm 16.3 13.0 2.3 39 6.3 SW 9 11 5 6 1010.6 1010.5 0.0
21/09:00pm 18.1 14.0 2.4 35 7.2 SSW 13 17 7 9 1010.2 1010.1 0.0
21/08:30pm 20.3 15.7 1.7 29 8.5 SSW 15 17 8 9 1010.0 1009.9 0.0
21/08:00pm 24.4 19.3 0.7 21 11.0 SSW 17 20 9 11 1009.8 1009.7 0.0

Other formats

Comma delimited format used in spreadsheet applications
http://www.bom.gov.au/fwo/IDS60801/IDS60801.94820.axf

JavaScript Object Notation format (JSON) in row-major order
http://www.bom.gov.au/fwo/IDS60801/IDS60801.94820.json

Data quality

Most of these data are generated automatically and are frequently updated. Quality checks on data are not normally performed. It is possible for incorrect values to appear. Refer to information at About Latest Weather Observations and please check the disclaimer before using these data.